Cuneyt Solakoglu — TCTN4 — position and weather

sailwx.info

Track history (hours):
 
Tides and Currents Weather Stations Pressure Air Temp Water Temp Dewpoint Dewpoint Depression Visibility Wind Speed Wind Dir Waves Ship Positions

Cuneyt Solakoglu

Last reported at 2016-Aug-30 03:31 UTC. Time now 2016-Aug-31 06:10 UTC.
Position N 36°26' E 023°13'.

Length 193 m; draft 7 m.

Type: Cargo ship. MMSI: 271002676.

Date/timePositionNaut miles runAvg speedWind from/ knotsBaromVisibWave heightAir tempDewpointWater temp
2016-Aug-30 03:31N 36°26' E 023°13'1919.1
2016-Aug-30 02:33N 36°42' E 023°25'2019.2
2016-Aug-30 01:32N 36°58' E 023°39'1818.7
2016-Aug-30 00:33N 37°14' E 023°51'1918.6
2016-Aug-29 23:33N 37°29' E 024°04'1818.2
2016-Aug-29 22:34N 37°44' E 024°17'1818.1
2016-Aug-29 21:34N 37°56' E 024°33'25916.9
2016-Aug-29 06:15N 40°55' E 028°37'16 2.4
2016-Aug-28 23:33N 40°49' E 028°57'1513.0
2016-Aug-28 22:25N 40°51' E 029°16'0 0.0
2016-Aug-28 21:30N 40°51' E 029°16'0 0.0
2016-Aug-28 20:30N 40°51' E 029°16'0 0.0
2016-Aug-28 19:30N 40°51' E 029°16'0 0.0
2016-Aug-28 18:29N 40°51' E 029°16'0 0.0
2016-Aug-28 17:29N 40°51' E 029°16'0 0.0
2016-Aug-28 16:28N 40°51' E 029°16'0 0.0
2016-Aug-28 15:28N 40°51' E 029°16'0 0.0
2016-Aug-28 14:33N 40°51' E 029°16'0 0.0
2016-Aug-28 13:27N 40°51' E 029°16'0 0.0
2016-Aug-28 12:32N 40°51' E 029°16'0 0.0
2016-Aug-28 11:32N 40°51' E 029°16'0 0.0
2016-Aug-28 10:32N 40°51' E 029°16'0 0.0
2016-Aug-28 09:25N 40°51' E 029°16'0 0.0
2016-Aug-28 08:33N 40°51' E 029°16'1212.3
2016-Aug-28 07:33N 40°49' E 029°00'23016.3
2016-Aug-27 17:29N 38°30' E 025°02'4017.7
2016-Aug-27 15:14N 37°55' E 024°38'66015.4
2016-Aug-25 20:22N 44°55' E 013°19'1619.3
2016-Aug-25 19:33N 45°08' E 013°07'1817.1
2016-Aug-25 18:30N 45°26' E 013°09'28 1.5
2016-Aug-24 23:32N 45°38' E 013°45'24 1.9
2016-Aug-24 11:12N 45°24' E 013°19'1117.6
2016-Aug-24 10:34N 45°13' E 013°17'1918.8
2016-Aug-24 09:33N 44°55' E 013°26'67117.5
2016-Aug-22 19:18N 36°38' E 023°22'1419.3
2016-Aug-22 18:33N 36°50' E 023°32'2019.6
2016-Aug-22 17:33N 37°06' E 023°45'1818.4
2016-Aug-22 16:33N 37°22' E 023°58'2618.4
2016-Aug-22 15:08N 37°44' E 024°16'8719.0
2016-Aug-22 10:32N 38°58' E 025°16'5618.9
2016-Aug-22 07:33N 39°48' E 025°50'15211.5
2016-Aug-21 18:21N 40°52' E 028°50'1518.2
2016-Aug-21 17:33N 40°49' E 029°09'6 5.1
2016-Aug-21 16:22N 40°51' E 029°16'0 0.0
2016-Aug-21 15:33N 40°51' E 029°16'0 0.0
2016-Aug-21 14:27N 40°51' E 029°16'0 0.0
2016-Aug-21 13:26N 40°51' E 029°16'0 0.0
2016-Aug-21 12:32N 40°51' E 029°16'0 0.0
2016-Aug-21 11:32N 40°51' E 029°16'0 0.0
2016-Aug-21 10:19N 40°51' E 029°16'0 0.0
2016-Aug-21 09:31N 40°51' E 029°16'0 0.0
2016-Aug-21 08:33N 40°51' E 029°16'1211.6
2016-Aug-21 07:33N 40°49' E 029°01'14016.8
2016-Aug-20 23:14N 40°01' E 026°09'10618.0
2016-Aug-20 17:22N 38°29' E 025°00'4018.3
2016-Aug-20 15:12N 37°54' E 024°36'1418.3
2016-Aug-20 14:25N 37°41' E 024°29'3317.7
2016-Aug-20 12:34N 37°15' E 024°04'5417.8
2016-Aug-20 09:32N 36°33' E 023°22'  
Track history (hours):
 
Tides and Currents Weather Stations Pressure Air Temp Water Temp Dewpoint Dewpoint Depression Visibility Wind Speed Wind Dir Waves Ship Positions

Cuneyt Solakoglu

Last reported at 2016-Aug-30 03:31 UTC. Time now 2016-Aug-31 06:10 UTC.
Position N 36°26' E 023°13'.

Length 193 m; draft 7 m.

Type: Cargo ship. MMSI: 271002676.

Date/timePositionNaut miles runAvg speedWind from/ knotsBaromVisibWave heightAir tempDewpointWater temp
2016-Aug-30 03:31N 36°26' E 023°13'1919.1
2016-Aug-30 02:33N 36°42' E 023°25'2019.2
2016-Aug-30 01:32N 36°58' E 023°39'1818.7
2016-Aug-30 00:33N 37°14' E 023°51'1918.6
2016-Aug-29 23:33N 37°29' E 024°04'1818.2
2016-Aug-29 22:34N 37°44' E 024°17'1818.1
2016-Aug-29 21:34N 37°56' E 024°33'25916.9
2016-Aug-29 06:15N 40°55' E 028°37'16 2.4
2016-Aug-28 23:33N 40°49' E 028°57'1513.0
2016-Aug-28 22:25N 40°51' E 029°16'0 0.0
2016-Aug-28 21:30N 40°51' E 029°16'0 0.0
2016-Aug-28 20:30N 40°51' E 029°16'0 0.0
2016-Aug-28 19:30N 40°51' E 029°16'0 0.0
2016-Aug-28 18:29N 40°51' E 029°16'0 0.0
2016-Aug-28 17:29N 40°51' E 029°16'0 0.0
2016-Aug-28 16:28N 40°51' E 029°16'0 0.0
2016-Aug-28 15:28N 40°51' E 029°16'0 0.0
2016-Aug-28 14:33N 40°51' E 029°16'0 0.0
2016-Aug-28 13:27N 40°51' E 029°16'0 0.0
2016-Aug-28 12:32N 40°51' E 029°16'0 0.0
2016-Aug-28 11:32N 40°51' E 029°16'0 0.0
2016-Aug-28 10:32N 40°51' E 029°16'0 0.0
2016-Aug-28 09:25N 40°51' E 029°16'0 0.0
2016-Aug-28 08:33N 40°51' E 029°16'1212.3
2016-Aug-28 07:33N 40°49' E 029°00'23016.3
2016-Aug-27 17:29N 38°30' E 025°02'4017.7
2016-Aug-27 15:14N 37°55' E 024°38'66015.4
2016-Aug-25 20:22N 44°55' E 013°19'1619.3
2016-Aug-25 19:33N 45°08' E 013°07'1817.1
2016-Aug-25 18:30N 45°26' E 013°09'28 1.5
2016-Aug-24 23:32N 45°38' E 013°45'24 1.9
2016-Aug-24 11:12N 45°24' E 013°19'1117.6
2016-Aug-24 10:34N 45°13' E 013°17'1918.8
2016-Aug-24 09:33N 44°55' E 013°26'67117.5
2016-Aug-22 19:18N 36°38' E 023°22'1419.3
2016-Aug-22 18:33N 36°50' E 023°32'2019.6
2016-Aug-22 17:33N 37°06' E 023°45'1818.4
2016-Aug-22 16:33N 37°22' E 023°58'2618.4
2016-Aug-22 15:08N 37°44' E 024°16'8719.0
2016-Aug-22 10:32N 38°58' E 025°16'5618.9
2016-Aug-22 07:33N 39°48' E 025°50'15211.5
2016-Aug-21 18:21N 40°52' E 028°50'1518.2
2016-Aug-21 17:33N 40°49' E 029°09'6 5.1
2016-Aug-21 16:22N 40°51' E 029°16'0 0.0
2016-Aug-21 15:33N 40°51' E 029°16'0 0.0
2016-Aug-21 14:27N 40°51' E 029°16'0 0.0
2016-Aug-21 13:26N 40°51' E 029°16'0 0.0
2016-Aug-21 12:32N 40°51' E 029°16'0 0.0
2016-Aug-21 11:32N 40°51' E 029°16'0 0.0
2016-Aug-21 10:19N 40°51' E 029°16'0 0.0
2016-Aug-21 09:31N 40°51' E 029°16'0 0.0
2016-Aug-21 08:33N 40°51' E 029°16'1211.6
2016-Aug-21 07:33N 40°49' E 029°01'14016.8
2016-Aug-20 23:14N 40°01' E 026°09'10618.0
2016-Aug-20 17:22N 38°29' E 025°00'4018.3
2016-Aug-20 15:12N 37°54' E 024°36'1418.3
2016-Aug-20 14:25N 37°41' E 024°29'3317.7
2016-Aug-20 12:34N 37°15' E 024°04'5417.8
2016-Aug-20 09:32N 36°33' E 023°22'  

Dump ship's entire track history